Hartsfield Jackson Atlanta International Airport
KATL : now visible

Airfield :











YOU CAN JOIN US ON...

 
LOGIN :

Register | Disclaimer

   EN    FR    IT 

 









Legend :    VFR   Marginal VFR   IFR   Intensive IFR   Very Intensive IFR
Visi :
Ceiling :
>= 8 km
>= 3000ft
5 to 8 km
1000 to 3000 ft
1500m to 5 km
500 to 1000 ft
800 to 1500m
200 to 500 ft
< 800m
< 200 ft
Symbols :   Thunderstorms  Fog  Heavy snow  Heavy precipitations  Wind > 20 kt






- Airport Elevation : 1026 ft
- IATA code : ATL


KATL - Hartsfield Jackson Atlanta International

CURRENT METAR :
  • 250852Z 09004KT 10SM FEW080 FEW120 BKN220 21/19 A3002 RMK AO2 SLP155 60066 T02060189 56017

EXPIRED METARs :
  • 250752Z 09006KT 10SM FEW120 BKN220 21/19 A3003 RMK AO2 RAE0657 SLP156 P0000 T02110189
  • 250652Z 10004KT 10SM -RA FEW044 SCT080 BKN110 BKN220 22/19 A3005 RMK AO2 TSB10E25 SLP167 TS DSPTD P0066 T02170189
  • 250626Z 00000KT 8SM -RA FEW029 SCT037 BKN070 BKN130 BKN200 22/19 A3007 RMK AO2 TSB10E25 TS DSIPT P0053 T02170194
  • 250610Z 19008KT 3SM R09R/4000VP6000FT +TSRA BR BKN029CB BKN041 OVC100 22/19 A3007 RMK AO2 TSB10 OCNL LTGIC OHD-W TS OHD-W MOV NW P0045 T02170194
  • 250552Z 13007KT 4SM +RA SCT045TCU BKN070 BKN100 BKN220 22/18 A3007 RMK AO2 RAB47 SLP172 TCU OHD-E-S P0002 60002 T02220183 10239 20217 51005

TAF KATL
Valid from the 25 at 08:00 until the 26 at 12:00 UTC


250758Z 2508/2612 10005KT P6SM FEW040 BKN200
FM251500 10007KT P6SM SCT035
FM251800 10010KT P6SM VCSH BKN050
TEMPO 2520/2524 4SM TSRA BKN025CB
FM260300 09007KT P6SM VCSH BKN030
FM260900 09008KT P6SM BKN015
KZTL FIR / North America



MET'MAP, your aeronautical weather chart ! - Copyright ORBIFLY December 2007 - Disclaimer

ORBIFLY MET'MAP TEAM :

Programming & Development : Alexandra Zaïnal
Concept & original design : Baudouin d'Aumeries
Assistance for programming : Marc-Olivier Méhu
Technical & hardware support : Manuel Goepfert

Contact : metmap@orbifly.com




SOURCES & CREDITS :

   NOAA       Earth
Advisory